createdAt,value
2022-09-14T00:01:44.350Z,5.28
2022-09-14T00:04:45.755Z,6.28
2022-09-14T00:07:47.057Z,6.55
2022-09-14T00:10:48.608Z,7.65
2022-09-14T00:13:50.358Z,8.02
2022-09-14T00:16:52.118Z,7.45
2022-09-14T00:19:53.676Z,6.70
2022-09-14T00:22:54.922Z,7.32
2022-09-14T00:26:01.897Z,8.15
2022-09-14T00:29:04.694Z,7.78
2022-09-14T00:32:06.140Z,7.40
2022-09-14T00:35:07.668Z,8.65
2022-09-14T00:38:09.773Z,7.93
2022-09-14T00:41:12.356Z,7.97
2022-09-14T00:44:13.566Z,7.70
2022-09-14T00:47:16.367Z,8.25
2022-09-14T00:50:18.082Z,7.95
2022-09-14T00:53:19.351Z,7.90
2022-09-14T00:56:20.875Z,7.80
2022-09-14T00:59:24.047Z,7.60
2022-09-14T01:02:27.114Z,6.57
2022-09-14T01:05:40.316Z,6.93
2022-09-14T01:08:59.856Z,7.38
2022-09-14T01:12:10.186Z,8.45
2022-09-14T01:15:14.464Z,7.82
2022-09-14T01:18:18.875Z,7.28
2022-09-14T01:21:23.751Z,7.38
2022-09-14T01:24:31.325Z,7.88
2022-09-14T01:27:41.545Z,7.50
2022-09-14T01:30:43.883Z,8.27
2022-09-14T01:33:54.404Z,7.45
2022-09-14T01:36:59.135Z,7.05
2022-09-14T01:40:03.629Z,7.40
2022-09-14T01:43:10.885Z,7.07
2022-09-14T01:46:14.858Z,6.43
2022-09-14T01:49:18.966Z,5.47
2022-09-14T01:52:23.690Z,6.55
2022-09-14T01:55:31.621Z,6.60
2022-09-14T01:58:46.977Z,7.25
2022-09-14T02:01:50.664Z,7.15
2022-09-14T02:04:57.856Z,6.85
2022-09-14T02:07:59.491Z,7.32
2022-09-14T02:11:01.177Z,7.70
2022-09-14T02:14:02.477Z,7.82
2022-09-14T02:17:03.932Z,7.65
2022-09-14T02:20:07.210Z,6.85
2022-09-14T02:23:08.565Z,7.97
2022-09-14T02:26:10.686Z,7.95
2022-09-14T02:29:12.050Z,8.57
2022-09-14T02:32:30.413Z,8.57
2022-09-14T02:35:37.568Z,9.15
2022-09-14T02:39:02.157Z,8.82
2022-09-14T02:42:22.111Z,8.30
2022-09-14T02:45:39.082Z,9.93
2022-09-14T02:48:58.988Z,8.77
2022-09-14T02:52:15.697Z,8.32
2022-09-14T02:55:19.114Z,8.20
2022-09-14T02:58:20.361Z,7.90
2022-09-14T03:01:22.681Z,10.05
2022-09-14T03:04:24.031Z,9.07
2022-09-14T03:07:25.269Z,8.63
2022-09-14T03:10:27.255Z,9.35
2022-09-14T03:13:28.491Z,8.70
2022-09-14T03:16:29.869Z,9.45
2022-09-14T03:19:31.195Z,8.43
2022-09-14T03:22:32.775Z,9.00
2022-09-14T03:25:36.934Z,10.40
2022-09-14T03:31:39.441Z,11.13
2022-09-14T03:34:41.115Z,11.15
2022-09-14T03:37:43.246Z,9.50
2022-09-14T03:40:44.469Z,10.15
2022-09-14T03:43:46.082Z,9.88
2022-09-14T03:46:47.438Z,10.45
2022-09-14T03:49:48.727Z,9.80
2022-09-14T03:52:49.999Z,10.75
2022-09-14T03:55:51.222Z,11.73
2022-09-14T03:58:52.457Z,10.32
2022-09-14T04:01:53.787Z,10.75
2022-09-14T04:04:55.095Z,9.68
2022-09-14T04:07:56.398Z,9.85
2022-09-14T04:10:57.646Z,9.70
2022-09-14T04:14:02.764Z,9.00
2022-09-14T04:17:04.139Z,7.75
2022-09-14T04:20:05.571Z,9.23
2022-09-14T04:23:06.817Z,9.55
2022-09-14T04:26:12.303Z,8.25
2022-09-14T04:29:14.439Z,8.85
2022-09-14T04:32:15.812Z,9.18
2022-09-14T04:35:17.055Z,7.72
2022-09-14T04:38:18.273Z,8.27
2022-09-14T04:41:20.909Z,8.25
2022-09-14T04:44:22.142Z,8.77
2022-09-14T04:47:23.383Z,6.25
2022-09-14T04:50:24.616Z,5.47
2022-09-14T04:53:25.857Z,6.93
2022-09-14T04:56:27.561Z,3.75
2022-09-14T04:59:28.829Z,4.18
2022-09-14T05:02:31.875Z,4.20
2022-09-14T05:05:35.094Z,3.95
2022-09-14T05:08:38.482Z,4.25
2022-09-14T05:11:39.958Z,3.42
2022-09-14T05:14:41.207Z,3.67
2022-09-14T05:17:42.434Z,4.07
2022-09-14T05:20:43.913Z,3.58
2022-09-14T05:23:45.541Z,4.68
2022-09-14T05:26:47.220Z,3.97
2022-09-14T05:29:48.438Z,4.25
2022-09-14T05:32:49.667Z,4.00
2022-09-14T05:35:51.264Z,4.03
2022-09-14T05:38:52.510Z,4.32
2022-09-14T05:41:53.968Z,4.90
2022-09-14T05:44:55.212Z,4.72
2022-09-14T05:48:00.058Z,4.53
2022-09-14T05:51:02.479Z,4.60
2022-09-14T05:54:09.303Z,4.45
2022-09-14T05:57:10.585Z,4.00
2022-09-14T06:00:12.102Z,4.20
2022-09-14T06:03:13.323Z,4.25
2022-09-14T06:06:15.745Z,4.53
2022-09-14T06:09:16.970Z,4.50
2022-09-14T06:12:18.652Z,3.88
2022-09-14T06:15:19.911Z,4.05
2022-09-14T06:18:21.174Z,4.60
2022-09-14T06:21:22.766Z,3.90
2022-09-14T06:24:24.263Z,4.00
2022-09-14T06:27:25.618Z,4.60
2022-09-14T06:30:27.640Z,5.07
2022-09-14T06:33:28.915Z,4.20
2022-09-14T06:36:30.159Z,4.35
2022-09-14T06:39:31.627Z,4.15
2022-09-14T06:42:32.890Z,4.07
2022-09-14T06:45:34.150Z,4.07
2022-09-14T06:48:36.769Z,4.05
2022-09-14T06:51:39.462Z,4.85
2022-09-14T06:54:40.766Z,4.03
2022-09-14T06:57:43.130Z,3.75
2022-09-14T07:00:44.765Z,3.80
2022-09-14T07:03:47.059Z,3.80
2022-09-14T07:06:49.726Z,3.80
2022-09-14T07:09:50.965Z,5.00
2022-09-14T07:12:52.236Z,4.72
2022-09-14T07:15:53.560Z,4.30
2022-09-14T07:18:55.657Z,5.05
2022-09-14T07:21:57.979Z,4.38
2022-09-14T07:24:59.232Z,4.65
2022-09-14T07:28:01.230Z,5.93
2022-09-14T07:31:03.260Z,4.63
2022-09-14T07:34:04.965Z,4.28
2022-09-14T07:37:06.271Z,4.05
2022-09-14T07:40:07.985Z,4.55
2022-09-14T07:43:09.501Z,4.55
2022-09-14T07:46:10.781Z,4.13
2022-09-14T07:49:12.575Z,4.22
2022-09-14T07:52:13.854Z,5.38
2022-09-14T07:55:15.130Z,4.05
2022-09-14T07:58:16.404Z,3.50
2022-09-14T08:01:17.881Z,4.07
2022-09-14T08:04:19.252Z,3.70
2022-09-14T08:07:20.547Z,4.00
2022-09-14T08:10:22.165Z,3.00
2022-09-14T08:13:23.481Z,3.03
2022-09-14T08:16:25.720Z,4.10
2022-09-14T08:19:27.024Z,2.95
2022-09-14T08:22:28.287Z,3.42
2022-09-14T08:25:29.549Z,2.72
2022-09-14T08:28:30.888Z,3.45
2022-09-14T08:31:35.899Z,3.05
2022-09-14T08:34:37.238Z,3.58
2022-09-14T08:37:38.477Z,3.05
2022-09-14T08:40:43.523Z,3.70
2022-09-14T08:43:44.886Z,3.10
2022-09-14T08:46:46.793Z,3.47
2022-09-14T08:49:57.575Z,3.40
2022-09-14T08:52:59.510Z,3.05
2022-09-14T08:56:02.512Z,3.30
2022-09-14T08:59:03.715Z,3.45
2022-09-14T09:02:10.832Z,4.55
2022-09-14T09:05:35.235Z,4.10
2022-09-14T09:08:42.252Z,3.70
2022-09-14T09:11:46.485Z,4.68
2022-09-14T09:14:53.268Z,3.90
2022-09-14T09:17:56.575Z,4.82
2022-09-14T09:21:01.702Z,4.22
2022-09-14T09:24:16.908Z,4.53
2022-09-14T09:27:18.211Z,4.90
2022-09-14T09:30:19.527Z,3.55
2022-09-14T09:33:25.094Z,4.15
2022-09-14T09:36:28.940Z,4.72
2022-09-14T09:39:31.054Z,4.10
2022-09-14T09:42:32.297Z,4.15
2022-09-14T09:45:52.173Z,3.42
2022-09-14T09:48:54.068Z,4.07
2022-09-14T09:51:55.747Z,4.03
2022-09-14T09:54:57.746Z,3.72
2022-09-14T09:58:18.925Z,4.22
2022-09-14T10:01:20.315Z,4.30
2022-09-14T10:04:22.998Z,3.90
2022-09-14T10:07:24.665Z,3.65
2022-09-14T10:10:39.232Z,3.92
2022-09-14T10:13:41.114Z,3.38
2022-09-14T10:16:42.396Z,4.00
2022-09-14T10:19:48.749Z,3.75
2022-09-14T10:22:50.096Z,3.72
2022-09-14T10:25:52.517Z,3.88
2022-09-14T10:28:53.812Z,4.03
2022-09-14T10:31:59.902Z,3.85
2022-09-14T10:35:01.224Z,3.67
2022-09-14T10:38:24.598Z,4.10
2022-09-14T10:41:31.991Z,4.20
2022-09-14T10:44:48.186Z,3.67
2022-09-14T10:48:02.689Z,4.05
2022-09-14T10:51:23.322Z,4.75
2022-09-14T10:54:30.988Z,5.28
2022-09-14T10:57:42.472Z,4.80
2022-09-14T11:01:07.266Z,5.18
2022-09-14T11:04:23.919Z,4.30
2022-09-14T11:07:38.747Z,4.45
2022-09-14T11:10:58.819Z,3.75
2022-09-14T11:14:06.216Z,4.75
2022-09-14T11:17:10.315Z,4.32
2022-09-14T11:20:17.628Z,3.75
2022-09-14T11:23:37.834Z,4.03
2022-09-14T11:26:42.477Z,3.42
2022-09-14T11:29:50.071Z,4.22
2022-09-14T11:32:54.492Z,3.60
2022-09-14T11:36:01.750Z,3.70
2022-09-14T11:39:07.018Z,3.15
2022-09-14T11:42:22.922Z,3.50
2022-09-14T11:45:30.150Z,3.28
2022-09-14T11:48:52.555Z,3.72
2022-09-14T11:51:55.941Z,3.00
2022-09-14T11:54:57.440Z,3.42
2022-09-14T11:57:59.896Z,3.35
2022-09-14T12:01:03.777Z,3.28
2022-09-14T12:04:09.891Z,3.35
2022-09-14T12:07:11.178Z,4.10
2022-09-14T12:10:18.345Z,3.67
2022-09-14T12:13:20.162Z,3.63
2022-09-14T12:16:21.450Z,3.67
2022-09-14T12:19:26.268Z,3.60
2022-09-14T12:22:32.283Z,4.03
2022-09-14T12:25:34.312Z,4.28
2022-09-14T12:28:35.918Z,4.45
2022-09-14T12:31:47.834Z,4.18
2022-09-14T12:35:09.030Z,4.13
2022-09-14T12:38:29.125Z,4.57
2022-09-14T12:41:36.230Z,4.20
2022-09-14T12:44:41.637Z,4.75
2022-09-14T12:47:52.239Z,4.38
2022-09-14T12:50:54.048Z,4.65
2022-09-14T12:54:01.404Z,4.20
2022-09-14T12:57:35.024Z,4.55
2022-09-14T13:00:47.035Z,3.85
2022-09-14T13:03:50.329Z,3.92
2022-09-14T13:06:52.642Z,4.32
2022-09-14T13:09:55.097Z,3.97
2022-09-14T13:12:56.380Z,4.45
2022-09-14T13:16:01.664Z,4.10
2022-09-14T13:19:04.854Z,3.92
2022-09-14T13:22:16.916Z,4.15
2022-09-14T13:25:44.447Z,3.65
2022-09-14T13:28:46.523Z,3.58
2022-09-14T13:31:47.821Z,3.88
2022-09-14T13:34:49.154Z,3.30
2022-09-14T13:37:50.703Z,3.70
2022-09-14T13:40:53.544Z,3.88
2022-09-14T13:43:56.039Z,3.58
2022-09-14T13:46:58.811Z,3.70
2022-09-14T13:50:00.546Z,3.67
2022-09-14T13:53:03.913Z,3.88
2022-09-14T13:56:35.231Z,3.83
2022-09-14T13:59:36.477Z,3.90
2022-09-14T14:02:46.071Z,3.58
2022-09-14T14:05:47.429Z,3.40
2022-09-14T14:08:53.162Z,3.38
2022-09-14T14:11:55.145Z,3.35
2022-09-14T14:14:57.859Z,3.42
2022-09-14T14:17:59.339Z,3.58
2022-09-14T14:21:19.535Z,2.83
2022-09-14T14:24:28.101Z,2.50
2022-09-14T14:27:37.498Z,2.55
2022-09-14T14:30:40.248Z,1.70
2022-09-14T14:33:47.920Z,1.80
2022-09-14T14:36:50.387Z,1.48
2022-09-14T14:39:51.758Z,1.50
2022-09-14T14:42:53.911Z,1.60
2022-09-14T14:45:56.855Z,1.63
2022-09-14T14:48:58.127Z,1.70
2022-09-14T14:51:59.388Z,2.40
2022-09-14T14:55:01.401Z,1.75
2022-09-14T14:58:04.618Z,1.63
2022-09-14T15:01:05.981Z,1.55
2022-09-14T15:04:07.235Z,2.13
2022-09-14T15:07:08.519Z,1.60
2022-09-14T15:10:13.190Z,1.17
2022-09-14T15:13:14.497Z,1.15
2022-09-14T15:16:16.266Z,1.50
2022-09-14T15:19:17.623Z,1.13
2022-09-14T15:22:19.727Z,1.00
2022-09-14T15:25:21.166Z,1.25
2022-09-14T15:28:22.428Z,1.00
2022-09-14T15:31:23.699Z,0.93
2022-09-14T15:34:25.069Z,1.00
2022-09-14T15:37:26.318Z,1.02
2022-09-14T15:40:27.628Z,1.05
2022-09-14T15:43:29.065Z,1.20
2022-09-14T15:46:30.661Z,1.00
2022-09-14T15:49:31.899Z,0.90
2022-09-14T15:52:37.100Z,1.10
2022-09-14T15:55:39.406Z,1.10
2022-09-14T15:58:43.737Z,1.10
2022-09-14T16:01:48.714Z,0.77
2022-09-14T16:04:50.052Z,1.15
2022-09-14T16:07:54.912Z,0.93
2022-09-14T16:10:59.895Z,1.08
2022-09-14T16:14:01.708Z,0.85
2022-09-14T16:17:03.263Z,0.80
2022-09-14T16:20:05.192Z,1.10
2022-09-14T16:23:06.480Z,0.85
2022-09-14T16:26:10.191Z,1.02
2022-09-14T16:29:13.194Z,1.02
2022-09-14T16:32:14.503Z,1.15
2022-09-14T16:35:15.758Z,1.33
2022-09-14T16:38:16.990Z,1.00
2022-09-14T16:41:18.452Z,0.93
2022-09-14T16:44:21.181Z,1.00
2022-09-14T16:47:22.422Z,1.00
2022-09-14T16:50:23.781Z,1.08
2022-09-14T16:53:25.108Z,1.15
2022-09-14T16:56:27.798Z,0.85
2022-09-14T16:59:29.036Z,1.10
2022-09-14T17:02:30.320Z,1.10
2022-09-14T17:05:31.735Z,1.70
2022-09-14T17:08:33.628Z,1.00
2022-09-14T17:11:36.026Z,1.02
2022-09-14T17:14:37.415Z,1.08
2022-09-14T17:17:38.769Z,0.90
2022-09-14T17:20:40.058Z,1.10
2022-09-14T17:23:41.361Z,1.85
2022-09-14T17:26:42.833Z,1.10
2022-09-14T17:29:44.293Z,1.20
2022-09-14T17:32:45.557Z,1.27
2022-09-14T17:35:48.104Z,1.45
2022-09-14T17:38:50.005Z,1.20
2022-09-14T17:41:51.263Z,1.30
2022-09-14T17:44:52.502Z,1.50
2022-09-14T17:47:53.751Z,1.45
2022-09-14T17:50:55.209Z,1.20
2022-09-14T17:53:57.955Z,1.38
2022-09-14T17:56:59.249Z,1.52
2022-09-14T18:00:00.515Z,1.13
2022-09-14T18:03:01.773Z,1.52
2022-09-14T18:06:03.856Z,1.55
2022-09-14T18:09:06.818Z,1.48
2022-09-14T18:12:10.183Z,1.55
2022-09-14T18:15:15.118Z,1.10
2022-09-14T18:18:16.639Z,1.10
2022-09-14T18:21:18.617Z,1.40
2022-09-14T18:24:20.310Z,1.67
2022-09-14T18:27:22.184Z,1.42
2022-09-14T18:30:23.448Z,0.93
2022-09-14T18:33:24.690Z,0.90
2022-09-14T18:36:28.836Z,1.00
2022-09-14T18:39:30.672Z,1.10
2022-09-14T18:42:31.963Z,1.13
2022-09-14T18:45:33.623Z,1.38
2022-09-14T18:48:34.901Z,1.00
2022-09-14T18:51:36.152Z,1.00
2022-09-14T18:54:37.423Z,0.93
2022-09-14T18:57:39.463Z,0.80
2022-09-14T19:00:45.145Z,0.90
2022-09-14T19:03:46.491Z,1.20
2022-09-14T19:06:47.733Z,0.80
2022-09-14T19:09:49.016Z,0.90
2022-09-14T19:12:50.273Z,0.93
2022-09-14T19:15:51.588Z,0.90
2022-09-14T19:18:52.881Z,1.52
2022-09-14T19:21:54.179Z,1.33
2022-09-14T19:24:55.446Z,1.13
2022-09-14T19:27:56.692Z,1.17
2022-09-14T19:30:57.996Z,1.20
2022-09-14T19:34:00.288Z,1.30
2022-09-14T19:37:01.648Z,1.10
2022-09-14T19:40:03.238Z,1.40
2022-09-14T19:43:04.552Z,1.23
2022-09-14T19:46:06.819Z,1.40
2022-09-14T19:49:28.381Z,1.27
2022-09-14T19:52:29.839Z,1.45
2022-09-14T19:55:31.324Z,1.58
2022-09-14T19:58:39.622Z,1.95
2022-09-14T20:01:40.967Z,1.48
2022-09-14T20:04:42.486Z,1.90
2022-09-14T20:07:43.787Z,2.25
2022-09-14T20:10:45.053Z,1.95
2022-09-14T20:13:47.598Z,1.80
2022-09-14T20:16:50.286Z,1.92
2022-09-14T20:19:51.531Z,1.60
2022-09-14T20:22:52.849Z,1.80
2022-09-14T20:25:54.087Z,2.08
2022-09-14T20:28:56.338Z,2.03
2022-09-14T20:31:58.234Z,2.00
2022-09-14T20:34:59.503Z,2.00
2022-09-14T20:38:00.756Z,1.90
2022-09-14T20:41:03.749Z,2.13
2022-09-14T20:44:05.583Z,2.00
2022-09-14T20:47:06.915Z,2.30
2022-09-14T20:50:08.246Z,2.47
2022-09-14T20:53:09.502Z,2.45
2022-09-14T20:56:11.854Z,2.90
2022-09-14T20:59:14.914Z,3.10
2022-09-14T21:02:16.275Z,2.85
2022-09-14T21:05:17.589Z,2.85
2022-09-14T21:08:18.894Z,3.40
2022-09-14T21:11:21.794Z,3.38
2022-09-14T21:14:23.225Z,3.50
2022-09-14T21:17:24.588Z,3.20
2022-09-14T21:20:25.894Z,2.92
2022-09-14T21:23:27.442Z,3.13
2022-09-14T21:26:29.334Z,3.72
2022-09-14T21:29:31.091Z,2.53
2022-09-14T21:32:32.345Z,3.50
2022-09-14T21:35:33.833Z,2.80
2022-09-14T21:38:35.521Z,2.80
2022-09-14T21:41:37.585Z,2.83
2022-09-14T21:44:38.838Z,2.58
2022-09-14T21:47:40.103Z,3.20
2022-09-14T21:50:44.129Z,2.83
2022-09-14T21:53:49.835Z,3.20
2022-09-14T21:56:52.139Z,3.58
2022-09-14T21:59:53.375Z,3.22
2022-09-14T22:02:54.650Z,2.80
2022-09-14T22:05:56.721Z,3.13
2022-09-14T22:08:59.767Z,3.22
2022-09-14T22:12:01.015Z,3.30
2022-09-14T22:15:02.235Z,3.25
2022-09-14T22:18:03.545Z,2.72
2022-09-14T22:21:05.327Z,3.65
2022-09-14T22:24:09.540Z,4.00
2022-09-14T22:27:10.904Z,3.08
2022-09-14T22:30:12.396Z,4.10
2022-09-14T22:33:13.757Z,3.92
2022-09-14T22:36:15.040Z,3.58
2022-09-14T22:39:16.276Z,3.53
2022-09-14T22:42:17.522Z,3.92
2022-09-14T22:45:18.774Z,3.20
2022-09-14T22:48:20.300Z,2.70
2022-09-14T22:51:25.856Z,3.33
2022-09-14T22:54:27.087Z,2.60
2022-09-14T22:57:28.331Z,2.95
2022-09-14T23:00:29.893Z,2.80
2022-09-14T23:03:31.157Z,2.92
2022-09-14T23:06:34.166Z,2.80
2022-09-14T23:09:35.394Z,2.53
2022-09-14T23:12:37.021Z,2.67
2022-09-14T23:15:39.029Z,2.58
2022-09-14T23:18:40.304Z,2.60
2022-09-14T23:21:41.553Z,2.92
2022-09-14T23:24:42.926Z,2.72
2022-09-14T23:27:44.153Z,3.45
2022-09-14T23:30:51.992Z,2.97
2022-09-14T23:33:54.042Z,3.08
2022-09-14T23:36:57.018Z,2.72
2022-09-14T23:39:58.297Z,3.20
2022-09-14T23:42:59.581Z,2.70
2022-09-14T23:46:00.896Z,2.80
2022-09-14T23:49:02.187Z,2.50
2022-09-14T23:52:03.519Z,3.95
2022-09-14T23:55:05.030Z,2.60
2022-09-14T23:58:06.265Z,3.10
